Terminal Aerodrome Forecast
Issued by NWS

Home | Current Version | Previous Version | Graphics & Text | Print | Product List | Glossary On
Versions: 1 2 3 4 5 6 7 8 9 10 11 12 13 14 15
000
FTUS43 KTOP 160530
TAFMHK
TAF
KMHK 160530Z 1606/1706 36013G25KT P6SM VCSH BKN019 OVC080
     FM160900 36015G24KT P6SM SCT019 OVC080
     FM161300 36010KT P6SM SCT200=

USA.gov is the U.S. government's official web portal to all federal, state and local government web resources and services.